Holmfirth, United Kingdom
Current Conditions -  °F | °C
As of 11:20 PM on Saturday 22 Nov 2014 (Local Time) from EGNM Reporting Station
Clear Clear  
Wind Chill:   Ceiling: Unl
Heat Index:   Visibility: 6mi
Dew Point:   Wind: 5mph
Humidity: 93%   Direction: 250°WSW
Pressure: 29.94"   Gusts: NA
Location:  53.57°N, 1.79°W
Report Text: EGNM 222320Z 25004KT CAVOK 08/07 Q1014
Loading
Personal Weather Stations






























Interactive Weather Map New forecast layout! Learn more

10-Day Weather Forecast

Advertisements
Track Severe Weather on mobile